sensor_id;sensor_type;location;lat;lon;timestamp;P1;durP1;ratioP1;P2;durP2;ratioP2
37973;SDS011;23796;51.458;7.000;2023-05-10T00:02:19;5.63;;;4.75;;
37973;SDS011;23796;51.458;7.000;2023-05-10T00:04:45;5.70;;;4.55;;
37973;SDS011;23796;51.458;7.000;2023-05-10T00:07:10;6.72;;;4.85;;
37973;SDS011;23796;51.458;7.000;2023-05-10T00:09:36;5.80;;;5.15;;
37973;SDS011;23796;51.458;7.000;2023-05-10T00:12:01;7.32;;;5.82;;
37973;SDS011;23796;51.458;7.000;2023-05-10T00:14:27;7.47;;;6.70;;
37973;SDS011;23796;51.458;7.000;2023-05-10T00:16:53;5.97;;;5.38;;
37973;SDS011;23796;51.458;7.000;2023-05-10T00:19:21;7.78;;;6.22;;
37973;SDS011;23796;51.458;7.000;2023-05-10T00:21:49;6.30;;;5.53;;
37973;SDS011;23796;51.458;7.000;2023-05-10T00:24:17;7.10;;;5.95;;
37973;SDS011;23796;51.458;7.000;2023-05-10T00:26:42;6.82;;;6.13;;
37973;SDS011;23796;51.458;7.000;2023-05-10T00:29:09;8.27;;;7.47;;
37973;SDS011;23796;51.458;7.000;2023-05-10T00:31:35;7.63;;;6.88;;
37973;SDS011;23796;51.458;7.000;2023-05-10T00:34:00;8.63;;;6.97;;
37973;SDS011;23796;51.458;7.000;2023-05-10T00:36:26;8.73;;;7.85;;
37973;SDS011;23796;51.458;7.000;2023-05-10T00:38:56;10.23;;;8.43;;
37973;SDS011;23796;51.458;7.000;2023-05-10T00:41:24;8.90;;;8.00;;
37973;SDS011;23796;51.458;7.000;2023-05-10T00:43:52;9.52;;;8.63;;
37973;SDS011;23796;51.458;7.000;2023-05-10T00:46:20;10.07;;;9.10;;
37973;SDS011;23796;51.458;7.000;2023-05-10T00:48:46;10.13;;;9.10;;
37973;SDS011;23796;51.458;7.000;2023-05-10T00:51:13;9.00;;;7.55;;
37973;SDS011;23796;51.458;7.000;2023-05-10T00:53:41;7.95;;;7.10;;
37973;SDS011;23796;51.458;7.000;2023-05-10T00:56:07;8.52;;;7.55;;
37973;SDS011;23796;51.458;7.000;2023-05-10T00:58:33;7.53;;;6.65;;
37973;SDS011;23796;51.458;7.000;2023-05-10T01:00:58;7.88;;;6.60;;
37973;SDS011;23796;51.458;7.000;2023-05-10T01:03:26;8.13;;;7.32;;
37973;SDS011;23796;51.458;7.000;2023-05-10T01:05:52;8.18;;;6.43;;
37973;SDS011;23796;51.458;7.000;2023-05-10T01:08:18;8.13;;;6.32;;
37973;SDS011;23796;51.458;7.000;2023-05-10T01:10:46;7.40;;;6.22;;
37973;SDS011;23796;51.458;7.000;2023-05-10T01:13:17;8.63;;;6.85;;
37973;SDS011;23796;51.458;7.000;2023-05-10T01:15:50;7.82;;;6.45;;
37973;SDS011;23796;51.458;7.000;2023-05-10T01:18:16;7.18;;;6.22;;
37973;SDS011;23796;51.458;7.000;2023-05-10T01:20:46;9.13;;;6.88;;
37973;SDS011;23796;51.458;7.000;2023-05-10T01:34:25;9.25;;;7.03;;
37973;SDS011;23796;51.458;7.000;2023-05-10T01:37:07;8.25;;;7.15;;
37973;SDS011;23796;51.458;7.000;2023-05-10T01:42:10;8.68;;;7.47;;
37973;SDS011;23796;51.458;7.000;2023-05-10T01:44:46;9.07;;;7.65;;
37973;SDS011;23796;51.458;7.000;2023-05-10T01:47:20;9.90;;;7.82;;
37973;SDS011;23796;51.458;7.000;2023-05-10T01:50:10;7.93;;;6.88;;
37973;SDS011;23796;51.458;7.000;2023-05-10T01:52:47;8.50;;;7.25;;
37973;SDS011;23796;51.458;7.000;2023-05-10T01:55:16;9.93;;;7.63;;
37973;SDS011;23796;51.458;7.000;2023-05-10T01:57:47;9.07;;;7.88;;
37973;SDS011;23796;51.458;7.000;2023-05-10T02:00:18;9.25;;;7.40;;
37973;SDS011;23796;51.458;7.000;2023-05-10T02:02:48;11.55;;;8.63;;
37973;SDS011;23796;51.458;7.000;2023-05-10T02:05:16;12.70;;;9.00;;
37973;SDS011;23796;51.458;7.000;2023-05-10T02:07:48;10.00;;;7.65;;
37973;SDS011;23796;51.458;7.000;2023-05-10T02:10:15;13.32;;;10.02;;
37973;SDS011;23796;51.458;7.000;2023-05-10T02:12:42;13.80;;;10.35;;
37973;SDS011;23796;51.458;7.000;2023-05-10T02:15:11;13.82;;;10.63;;
37973;SDS011;23796;51.458;7.000;2023-05-10T02:17:42;14.73;;;10.85;;
37973;SDS011;23796;51.458;7.000;2023-05-10T02:20:08;14.27;;;11.80;;
37973;SDS011;23796;51.458;7.000;2023-05-10T02:22:35;12.25;;;10.82;;
37973;SDS011;23796;51.458;7.000;2023-05-10T02:25:01;14.52;;;11.52;;
37973;SDS011;23796;51.458;7.000;2023-05-10T02:27:29;14.00;;;11.07;;
37973;SDS011;23796;51.458;7.000;2023-05-10T02:29:57;15.77;;;11.23;;
37973;SDS011;23796;51.458;7.000;2023-05-10T02:32:24;11.65;;;9.70;;
37973;SDS011;23796;51.458;7.000;2023-05-10T02:34:51;13.30;;;9.95;;
37973;SDS011;23796;51.458;7.000;2023-05-10T02:37:20;10.73;;;8.20;;
37973;SDS011;23796;51.458;7.000;2023-05-10T02:39:50;11.43;;;8.52;;
37973;SDS011;23796;51.458;7.000;2023-05-10T02:42:19;11.35;;;7.82;;
37973;SDS011;23796;51.458;7.000;2023-05-10T02:44:53;10.57;;;8.10;;
37973;SDS011;23796;51.458;7.000;2023-05-10T02:47:24;11.63;;;9.17;;
37973;SDS011;23796;51.458;7.000;2023-05-10T02:49:52;10.50;;;8.50;;
37973;SDS011;23796;51.458;7.000;2023-05-10T02:52:24;11.85;;;9.63;;
37973;SDS011;23796;51.458;7.000;2023-05-10T02:55:02;10.48;;;9.15;;
37973;SDS011;23796;51.458;7.000;2023-05-10T02:57:35;13.18;;;10.25;;
37973;SDS011;23796;51.458;7.000;2023-05-10T03:00:05;13.75;;;11.05;;
37973;SDS011;23796;51.458;7.000;2023-05-10T03:02:32;12.95;;;11.55;;
37973;SDS011;23796;51.458;7.000;2023-05-10T03:04:57;14.18;;;12.07;;
37973;SDS011;23796;51.458;7.000;2023-05-10T03:07:23;12.82;;;11.48;;
37973;SDS011;23796;51.458;7.000;2023-05-10T03:09:49;14.02;;;12.10;;
37973;SDS011;23796;51.458;7.000;2023-05-10T03:15:00;15.48;;;13.45;;
37973;SDS011;23796;51.458;7.000;2023-05-10T03:20:12;13.70;;;11.82;;
37973;SDS011;23796;51.458;7.000;2023-05-10T03:22:52;12.30;;;10.70;;
37973;SDS011;23796;51.458;7.000;2023-05-10T03:25:20;11.77;;;10.57;;
37973;SDS011;23796;51.458;7.000;2023-05-10T03:27:47;10.77;;;9.68;;
37973;SDS011;23796;51.458;7.000;2023-05-10T03:30:16;11.70;;;10.50;;
37973;SDS011;23796;51.458;7.000;2023-05-10T03:32:44;11.75;;;10.32;;
37973;SDS011;23796;51.458;7.000;2023-05-10T03:35:11;12.65;;;10.43;;
37973;SDS011;23796;51.458;7.000;2023-05-10T03:37:40;12.98;;;10.73;;
37973;SDS011;23796;51.458;7.000;2023-05-10T03:40:08;10.02;;;9.00;;
37973;SDS011;23796;51.458;7.000;2023-05-10T03:42:34;12.73;;;10.02;;
37973;SDS011;23796;51.458;7.000;2023-05-10T03:45:02;11.57;;;10.30;;
37973;SDS011;23796;51.458;7.000;2023-05-10T03:47:27;11.40;;;10.20;;
37973;SDS011;23796;51.458;7.000;2023-05-10T03:49:54;11.77;;;10.57;;
37973;SDS011;23796;51.458;7.000;2023-05-10T03:52:22;12.93;;;11.60;;
37973;SDS011;23796;51.458;7.000;2023-05-10T03:54:47;13.57;;;11.40;;
37973;SDS011;23796;51.458;7.000;2023-05-10T03:57:13;13.25;;;11.93;;
37973;SDS011;23796;51.458;7.000;2023-05-10T03:59:39;13.93;;;12.25;;
37973;SDS011;23796;51.458;7.000;2023-05-10T04:02:06;13.90;;;12.50;;
37973;SDS011;23796;51.458;7.000;2023-05-10T04:04:32;14.00;;;12.60;;
37973;SDS011;23796;51.458;7.000;2023-05-10T04:07:00;15.18;;;13.32;;
37973;SDS011;23796;51.458;7.000;2023-05-10T04:09:25;14.85;;;13.35;;
37973;SDS011;23796;51.458;7.000;2023-05-10T04:11:53;17.10;;;14.15;;
37973;SDS011;23796;51.458;7.000;2023-05-10T04:14:25;16.08;;;12.68;;
37973;SDS011;23796;51.458;7.000;2023-05-10T04:16:51;17.52;;;14.23;;
37973;SDS011;23796;51.458;7.000;2023-05-10T04:19:18;16.33;;;14.57;;
37973;SDS011;23796;51.458;7.000;2023-05-10T04:21:44;18.92;;;13.63;;
37973;SDS011;23796;51.458;7.000;2023-05-10T04:24:10;18.55;;;15.25;;
37973;SDS011;23796;51.458;7.000;2023-05-10T04:26:35;16.60;;;14.20;;
37973;SDS011;23796;51.458;7.000;2023-05-10T04:29:01;15.70;;;14.10;;
37973;SDS011;23796;51.458;7.000;2023-05-10T04:31:27;18.25;;;15.40;;
37973;SDS011;23796;51.458;7.000;2023-05-10T04:33:55;17.65;;;15.77;;
37973;SDS011;23796;51.458;7.000;2023-05-10T04:36:20;19.80;;;16.27;;
37973;SDS011;23796;51.458;7.000;2023-05-10T04:38:46;17.40;;;15.57;;
37973;SDS011;23796;51.458;7.000;2023-05-10T04:41:12;18.95;;;16.30;;
37973;SDS011;23796;51.458;7.000;2023-05-10T04:43:38;18.67;;;16.40;;
37973;SDS011;23796;51.458;7.000;2023-05-10T04:46:04;18.58;;;16.60;;
37973;SDS011;23796;51.458;7.000;2023-05-10T04:48:30;17.83;;;16.00;;
37973;SDS011;23796;51.458;7.000;2023-05-10T04:50:58;18.83;;;16.88;;
37973;SDS011;23796;51.458;7.000;2023-05-10T04:53:24;18.88;;;16.98;;
37973;SDS011;23796;51.458;7.000;2023-05-10T04:55:50;19.48;;;17.40;;
37973;SDS011;23796;51.458;7.000;2023-05-10T04:58:20;19.90;;;17.90;;
37973;SDS011;23796;51.458;7.000;2023-05-10T05:00:48;20.23;;;17.95;;
37973;SDS011;23796;51.458;7.000;2023-05-10T05:03:14;20.55;;;18.35;;
37973;SDS011;23796;51.458;7.000;2023-05-10T05:05:40;21.23;;;18.67;;
37973;SDS011;23796;51.458;7.000;2023-05-10T05:08:09;21.75;;;18.90;;
37973;SDS011;23796;51.458;7.000;2023-05-10T05:10:35;20.77;;;18.65;;
37973;SDS011;23796;51.458;7.000;2023-05-10T05:13:00;21.55;;;19.00;;
37973;SDS011;23796;51.458;7.000;2023-05-10T05:15:26;23.13;;;19.35;;
37973;SDS011;23796;51.458;7.000;2023-05-10T05:17:53;21.10;;;18.92;;
37973;SDS011;23796;51.458;7.000;2023-05-10T05:20:19;22.30;;;19.15;;
37973;SDS011;23796;51.458;7.000;2023-05-10T05:22:45;24.20;;;20.50;;
37973;SDS011;23796;51.458;7.000;2023-05-10T05:25:10;22.23;;;19.83;;
37973;SDS011;23796;51.458;7.000;2023-05-10T05:27:36;22.40;;;19.63;;
37973;SDS011;23796;51.458;7.000;2023-05-10T05:30:02;21.52;;;19.13;;
37973;SDS011;23796;51.458;7.000;2023-05-10T05:32:29;21.33;;;19.20;;
37973;SDS011;23796;51.458;7.000;2023-05-10T05:34:55;22.77;;;20.42;;
37973;SDS011;23796;51.458;7.000;2023-05-10T05:37:21;20.63;;;18.45;;
37973;SDS011;23796;51.458;7.000;2023-05-10T05:39:47;21.88;;;19.40;;
37973;SDS011;23796;51.458;7.000;2023-05-10T05:42:13;22.27;;;20.08;;
37973;SDS011;23796;51.458;7.000;2023-05-10T05:44:41;20.70;;;18.60;;
37973;SDS011;23796;51.458;7.000;2023-05-10T05:47:09;23.15;;;19.13;;
37973;SDS011;23796;51.458;7.000;2023-05-10T05:49:37;21.17;;;19.00;;
37973;SDS011;23796;51.458;7.000;2023-05-10T05:52:05;20.85;;;18.75;;
37973;SDS011;23796;51.458;7.000;2023-05-10T05:54:33;23.92;;;20.38;;
37973;SDS011;23796;51.458;7.000;2023-05-10T05:57:01;22.10;;;19.80;;
37973;SDS011;23796;51.458;7.000;2023-05-10T05:59:27;21.73;;;19.33;;
37973;SDS011;23796;51.458;7.000;2023-05-10T06:01:52;20.80;;;18.50;;
37973;SDS011;23796;51.458;7.000;2023-05-10T06:04:18;21.58;;;19.23;;
37973;SDS011;23796;51.458;7.000;2023-05-10T06:06:44;21.42;;;18.38;;
37973;SDS011;23796;51.458;7.000;2023-05-10T06:09:12;21.27;;;17.70;;
37973;SDS011;23796;51.458;7.000;2023-05-10T06:11:37;21.17;;;16.80;;
37973;SDS011;23796;51.458;7.000;2023-05-10T06:14:03;22.05;;;18.80;;
37973;SDS011;23796;51.458;7.000;2023-05-10T06:16:32;19.00;;;16.95;;
37973;SDS011;23796;51.458;7.000;2023-05-10T06:19:00;20.40;;;18.17;;
37973;SDS011;23796;51.458;7.000;2023-05-10T06:21:26;20.73;;;18.52;;
37973;SDS011;23796;51.458;7.000;2023-05-10T06:23:54;20.15;;;18.02;;
37973;SDS011;23796;51.458;7.000;2023-05-10T06:26:22;20.85;;;18.58;;
37973;SDS011;23796;51.458;7.000;2023-05-10T06:28:47;23.50;;;18.45;;
37973;SDS011;23796;51.458;7.000;2023-05-10T06:31:17;22.60;;;18.65;;
37973;SDS011;23796;51.458;7.000;2023-05-10T06:33:43;24.25;;;20.13;;
37973;SDS011;23796;51.458;7.000;2023-05-10T06:36:09;25.80;;;22.55;;
37973;SDS011;23796;51.458;7.000;2023-05-10T06:38:34;28.45;;;21.73;;
37973;SDS011;23796;51.458;7.000;2023-05-10T06:41:02;25.67;;;19.88;;
37973;SDS011;23796;51.458;7.000;2023-05-10T06:43:28;26.90;;;21.90;;
37973;SDS011;23796;51.458;7.000;2023-05-10T06:45:56;27.50;;;20.88;;
37973;SDS011;23796;51.458;7.000;2023-05-10T06:48:22;25.92;;;21.45;;
37973;SDS011;23796;51.458;7.000;2023-05-10T06:50:48;25.25;;;21.85;;
37973;SDS011;23796;51.458;7.000;2023-05-10T06:53:13;29.33;;;22.67;;
37973;SDS011;23796;51.458;7.000;2023-05-10T06:55:39;27.48;;;22.00;;
37973;SDS011;23796;51.458;7.000;2023-05-10T06:58:05;29.73;;;21.75;;
37973;SDS011;23796;51.458;7.000;2023-05-10T07:00:32;34.85;;;24.60;;
37973;SDS011;23796;51.458;7.000;2023-05-10T07:03:06;26.75;;;22.30;;
37973;SDS011;23796;51.458;7.000;2023-05-10T07:05:34;26.92;;;21.67;;
37973;SDS011;23796;51.458;7.000;2023-05-10T07:08:01;27.55;;;22.02;;
37973;SDS011;23796;51.458;7.000;2023-05-10T07:10:27;25.83;;;21.13;;
37973;SDS011;23796;51.458;7.000;2023-05-10T07:12:53;27.85;;;21.50;;
37973;SDS011;23796;51.458;7.000;2023-05-10T07:15:21;27.95;;;22.92;;
37973;SDS011;23796;51.458;7.000;2023-05-10T07:17:51;26.38;;;21.27;;
37973;SDS011;23796;51.458;7.000;2023-05-10T07:20:18;25.17;;;19.88;;
37973;SDS011;23796;51.458;7.000;2023-05-10T07:22:43;24.70;;;20.65;;
37973;SDS011;23796;51.458;7.000;2023-05-10T07:25:09;25.55;;;20.92;;
37973;SDS011;23796;51.458;7.000;2023-05-10T07:27:34;29.10;;;20.38;;
37973;SDS011;23796;51.458;7.000;2023-05-10T07:30:00;25.85;;;20.80;;
37973;SDS011;23796;51.458;7.000;2023-05-10T07:32:26;28.60;;;22.30;;
37973;SDS011;23796;51.458;7.000;2023-05-10T07:34:56;27.05;;;22.38;;
37973;SDS011;23796;51.458;7.000;2023-05-10T07:37:22;25.38;;;21.77;;
37973;SDS011;23796;51.458;7.000;2023-05-10T07:39:47;27.67;;;21.40;;
37973;SDS011;23796;51.458;7.000;2023-05-10T07:42:15;25.92;;;21.25;;
37973;SDS011;23796;51.458;7.000;2023-05-10T07:44:41;25.63;;;21.98;;
37973;SDS011;23796;51.458;7.000;2023-05-10T07:47:08;24.33;;;19.88;;
37973;SDS011;23796;51.458;7.000;2023-05-10T07:49:36;24.73;;;20.27;;
37973;SDS011;23796;51.458;7.000;2023-05-10T07:52:04;23.65;;;19.23;;
37973;SDS011;23796;51.458;7.000;2023-05-10T07:54:32;23.90;;;19.73;;
37973;SDS011;23796;51.458;7.000;2023-05-10T07:57:03;25.55;;;20.48;;
37973;SDS011;23796;51.458;7.000;2023-05-10T07:59:28;22.30;;;19.27;;
37973;SDS011;23796;51.458;7.000;2023-05-10T08:01:57;23.67;;;19.08;;
37973;SDS011;23796;51.458;7.000;2023-05-10T08:04:25;21.13;;;17.92;;
37973;SDS011;23796;51.458;7.000;2023-05-10T08:06:51;22.13;;;18.15;;
37973;SDS011;23796;51.458;7.000;2023-05-10T08:09:19;22.50;;;16.13;;
37973;SDS011;23796;51.458;7.000;2023-05-10T08:11:48;17.40;;;15.52;;
37973;SDS011;23796;51.458;7.000;2023-05-10T08:14:15;17.65;;;13.98;;
37973;SDS011;23796;51.458;7.000;2023-05-10T08:16:40;16.98;;;13.73;;
37973;SDS011;23796;51.458;7.000;2023-05-10T08:19:11;15.55;;;13.80;;
37973;SDS011;23796;51.458;7.000;2023-05-10T08:21:36;17.63;;;14.77;;
37973;SDS011;23796;51.458;7.000;2023-05-10T08:24:02;15.60;;;13.00;;
37973;SDS011;23796;51.458;7.000;2023-05-10T08:26:32;16.70;;;12.82;;
37973;SDS011;23796;51.458;7.000;2023-05-10T08:29:02;18.77;;;14.68;;
37973;SDS011;23796;51.458;7.000;2023-05-10T08:31:28;16.65;;;14.40;;
37973;SDS011;23796;51.458;7.000;2023-05-10T08:33:54;18.67;;;16.13;;
37973;SDS011;23796;51.458;7.000;2023-05-10T08:36:19;20.35;;;16.17;;
37973;SDS011;23796;51.458;7.000;2023-05-10T08:38:47;18.98;;;15.45;;
37973;SDS011;23796;51.458;7.000;2023-05-10T08:41:20;20.40;;;16.73;;
37973;SDS011;23796;51.458;7.000;2023-05-10T08:43:46;20.67;;;18.48;;
37973;SDS011;23796;51.458;7.000;2023-05-10T08:46:16;19.67;;;16.52;;
37973;SDS011;23796;51.458;7.000;2023-05-10T08:48:48;19.90;;;17.80;;
37973;SDS011;23796;51.458;7.000;2023-05-10T08:51:19;21.20;;;19.00;;
37973;SDS011;23796;51.458;7.000;2023-05-10T08:56:17;19.20;;;17.20;;
37973;SDS011;23796;51.458;7.000;2023-05-10T08:58:43;19.33;;;16.33;;
37973;SDS011;23796;51.458;7.000;2023-05-10T09:01:09;17.98;;;14.95;;
37973;SDS011;23796;51.458;7.000;2023-05-10T09:03:38;15.13;;;13.50;;
37973;SDS011;23796;51.458;7.000;2023-05-10T09:06:04;18.92;;;14.85;;
37973;SDS011;23796;51.458;7.000;2023-05-10T09:08:30;17.67;;;14.75;;
37973;SDS011;23796;51.458;7.000;2023-05-10T09:10:56;20.15;;;15.43;;
37973;SDS011;23796;51.458;7.000;2023-05-10T09:13:22;19.73;;;15.25;;
37973;SDS011;23796;51.458;7.000;2023-05-10T09:15:48;18.80;;;15.35;;
37973;SDS011;23796;51.458;7.000;2023-05-10T09:18:16;19.23;;;15.38;;
37973;SDS011;23796;51.458;7.000;2023-05-10T09:20:44;20.33;;;16.20;;
37973;SDS011;23796;51.458;7.000;2023-05-10T09:23:12;22.30;;;17.90;;
37973;SDS011;23796;51.458;7.000;2023-05-10T09:25:38;21.92;;;18.83;;
37973;SDS011;23796;51.458;7.000;2023-05-10T09:28:08;24.00;;;19.67;;
37973;SDS011;23796;51.458;7.000;2023-05-10T09:30:37;21.42;;;19.13;;
37973;SDS011;23796;51.458;7.000;2023-05-10T09:33:02;24.85;;;20.02;;
37973;SDS011;23796;51.458;7.000;2023-05-10T09:35:29;23.20;;;19.25;;
37973;SDS011;23796;51.458;7.000;2023-05-10T09:37:57;24.45;;;20.27;;
37973;SDS011;23796;51.458;7.000;2023-05-10T09:40:28;24.77;;;21.63;;
37973;SDS011;23796;51.458;7.000;2023-05-10T09:45:29;25.92;;;19.65;;
37973;SDS011;23796;51.458;7.000;2023-05-10T09:47:56;22.48;;;17.38;;
37973;SDS011;23796;51.458;7.000;2023-05-10T09:50:23;22.10;;;17.25;;
37973;SDS011;23796;51.458;7.000;2023-05-10T09:52:52;22.17;;;17.48;;
37973;SDS011;23796;51.458;7.000;2023-05-10T09:55:20;19.23;;;16.40;;
37973;SDS011;23796;51.458;7.000;2023-05-10T09:57:58;21.33;;;16.98;;
37973;SDS011;23796;51.458;7.000;2023-05-10T10:00:25;19.60;;;16.38;;
37973;SDS011;23796;51.458;7.000;2023-05-10T10:02:56;16.27;;;14.10;;
37973;SDS011;23796;51.458;7.000;2023-05-10T10:05:31;15.00;;;13.38;;
37973;SDS011;23796;51.458;7.000;2023-05-10T10:07:58;16.42;;;14.73;;
37973;SDS011;23796;51.458;7.000;2023-05-10T10:10:25;16.25;;;14.27;;
37973;SDS011;23796;51.458;7.000;2023-05-10T10:12:56;15.77;;;14.07;;
37973;SDS011;23796;51.458;7.000;2023-05-10T10:15:22;15.70;;;13.02;;
37973;SDS011;23796;51.458;7.000;2023-05-10T10:17:51;14.43;;;12.90;;
37973;SDS011;23796;51.458;7.000;2023-05-10T10:20:21;14.23;;;12.70;;
37973;SDS011;23796;51.458;7.000;2023-05-10T10:22:50;13.25;;;11.60;;
37973;SDS011;23796;51.458;7.000;2023-05-10T10:25:16;12.95;;;11.65;;
37973;SDS011;23796;51.458;7.000;2023-05-10T10:35:30;14.07;;;12.32;;
37973;SDS011;23796;51.458;7.000;2023-05-10T10:37:56;13.20;;;11.23;;
37973;SDS011;23796;51.458;7.000;2023-05-10T10:40:24;14.05;;;11.57;;
37973;SDS011;23796;51.458;7.000;2023-05-10T10:42:54;18.13;;;13.55;;
37973;SDS011;23796;51.458;7.000;2023-05-10T10:45:21;17.85;;;13.30;;
37973;SDS011;23796;51.458;7.000;2023-05-10T10:50:56;14.57;;;12.25;;
37973;SDS011;23796;51.458;7.000;2023-05-10T10:53:23;13.73;;;11.60;;
37973;SDS011;23796;51.458;7.000;2023-05-10T10:55:53;16.33;;;11.45;;
37973;SDS011;23796;51.458;7.000;2023-05-10T10:58:38;16.25;;;11.52;;
37973;SDS011;23796;51.458;7.000;2023-05-10T11:03:38;13.38;;;10.35;;
37973;SDS011;23796;51.458;7.000;2023-05-10T11:06:06;14.07;;;10.15;;
37973;SDS011;23796;51.458;7.000;2023-05-10T11:08:34;12.02;;;10.73;;
37973;SDS011;23796;51.458;7.000;2023-05-10T11:11:07;18.55;;;11.32;;
37973;SDS011;23796;51.458;7.000;2023-05-10T11:13:40;15.23;;;10.18;;
37973;SDS011;23796;51.458;7.000;2023-05-10T11:16:14;13.13;;;10.35;;
37973;SDS011;23796;51.458;7.000;2023-05-10T11:24:15;15.10;;;10.88;;
37973;SDS011;23796;51.458;7.000;2023-05-10T11:26:42;14.13;;;10.48;;
37973;SDS011;23796;51.458;7.000;2023-05-10T11:29:12;15.05;;;11.60;;
37973;SDS011;23796;51.458;7.000;2023-05-10T11:31:43;16.67;;;11.70;;
37973;SDS011;23796;51.458;7.000;2023-05-10T11:34:10;13.23;;;11.75;;
37973;SDS011;23796;51.458;7.000;2023-05-10T11:36:36;13.98;;;12.43;;
37973;SDS011;23796;51.458;7.000;2023-05-10T11:39:05;14.38;;;12.25;;
37973;SDS011;23796;51.458;7.000;2023-05-10T11:41:30;13.95;;;12.40;;
37973;SDS011;23796;51.458;7.000;2023-05-10T11:43:57;15.63;;;13.02;;
37973;SDS011;23796;51.458;7.000;2023-05-10T11:46:24;21.50;;;19.13;;
37973;SDS011;23796;51.458;7.000;2023-05-10T11:48:56;15.52;;;11.68;;
37973;SDS011;23796;51.458;7.000;2023-05-10T11:51:26;13.25;;;11.40;;
37973;SDS011;23796;51.458;7.000;2023-05-10T11:53:53;13.50;;;10.50;;
37973;SDS011;23796;51.458;7.000;2023-05-10T11:56:23;11.88;;;10.52;;
37973;SDS011;23796;51.458;7.000;2023-05-10T11:58:56;11.18;;;9.60;;
37973;SDS011;23796;51.458;7.000;2023-05-10T12:01:23;12.43;;;9.63;;
37973;SDS011;23796;51.458;7.000;2023-05-10T12:03:50;11.98;;;9.77;;
37973;SDS011;23796;51.458;7.000;2023-05-10T12:06:19;12.98;;;10.73;;
37973;SDS011;23796;51.458;7.000;2023-05-10T12:08:48;12.48;;;10.32;;
37973;SDS011;23796;51.458;7.000;2023-05-10T12:11:26;10.80;;;9.50;;
37973;SDS011;23796;51.458;7.000;2023-05-10T12:13:53;10.60;;;9.02;;
37973;SDS011;23796;51.458;7.000;2023-05-10T12:16:21;12.48;;;10.00;;
37973;SDS011;23796;51.458;7.000;2023-05-10T12:18:52;10.00;;;7.40;;
37973;SDS011;23796;51.458;7.000;2023-05-10T12:21:20;11.30;;;8.98;;
37973;SDS011;23796;51.458;7.000;2023-05-10T12:23:46;10.30;;;8.13;;
37973;SDS011;23796;51.458;7.000;2023-05-10T12:26:13;8.82;;;7.78;;
37973;SDS011;23796;51.458;7.000;2023-05-10T12:28:42;9.63;;;7.82;;
37973;SDS011;23796;51.458;7.000;2023-05-10T12:31:07;8.63;;;6.38;;
37973;SDS011;23796;51.458;7.000;2023-05-10T12:33:36;7.93;;;5.18;;
37973;SDS011;23796;51.458;7.000;2023-05-10T12:36:07;7.38;;;4.75;;
37973;SDS011;23796;51.458;7.000;2023-05-10T12:38:35;6.57;;;3.80;;
37973;SDS011;23796;51.458;7.000;2023-05-10T12:41:06;4.95;;;3.97;;
37973;SDS011;23796;51.458;7.000;2023-05-10T12:43:34;5.20;;;3.80;;
37973;SDS011;23796;51.458;7.000;2023-05-10T12:48:38;6.25;;;3.95;;
37973;SDS011;23796;51.458;7.000;2023-05-10T12:51:05;7.20;;;4.45;;
37973;SDS011;23796;51.458;7.000;2023-05-10T12:53:34;6.30;;;4.25;;
37973;SDS011;23796;51.458;7.000;2023-05-10T12:56:02;8.02;;;3.92;;
37973;SDS011;23796;51.458;7.000;2023-05-10T12:58:28;7.13;;;4.47;;
37973;SDS011;23796;51.458;7.000;2023-05-10T13:00:54;9.30;;;5.22;;
37973;SDS011;23796;51.458;7.000;2023-05-10T13:03:21;6.13;;;3.55;;
37973;SDS011;23796;51.458;7.000;2023-05-10T13:05:47;5.70;;;3.72;;
37973;SDS011;23796;51.458;7.000;2023-05-10T13:08:15;6.43;;;4.15;;
37973;SDS011;23796;51.458;7.000;2023-05-10T13:10:41;5.85;;;3.70;;
37973;SDS011;23796;51.458;7.000;2023-05-10T13:13:08;8.25;;;4.45;;
37973;SDS011;23796;51.458;7.000;2023-05-10T13:15:34;7.15;;;4.00;;
37973;SDS011;23796;51.458;7.000;2023-05-10T13:18:03;5.30;;;3.83;;
37973;SDS011;23796;51.458;7.000;2023-05-10T13:20:28;5.38;;;3.00;;
37973;SDS011;23796;51.458;7.000;2023-05-10T13:22:54;5.65;;;2.75;;
37973;SDS011;23796;51.458;7.000;2023-05-10T13:25:20;5.43;;;2.90;;
37973;SDS011;23796;51.458;7.000;2023-05-10T13:27:46;4.72;;;2.97;;
37973;SDS011;23796;51.458;7.000;2023-05-10T13:30:11;7.28;;;3.00;;
37973;SDS011;23796;51.458;7.000;2023-05-10T13:32:37;3.83;;;2.70;;
37973;SDS011;23796;51.458;7.000;2023-05-10T13:35:03;6.95;;;3.22;;
37973;SDS011;23796;51.458;7.000;2023-05-10T13:37:31;6.18;;;3.70;;
37973;SDS011;23796;51.458;7.000;2023-05-10T13:40:04;6.00;;;3.42;;
37973;SDS011;23796;51.458;7.000;2023-05-10T13:42:31;8.68;;;3.85;;
37973;SDS011;23796;51.458;7.000;2023-05-10T13:44:58;4.53;;;3.03;;
37973;SDS011;23796;51.458;7.000;2023-05-10T13:47:25;6.70;;;3.28;;
37973;SDS011;23796;51.458;7.000;2023-05-10T13:49:50;6.25;;;3.30;;
37973;SDS011;23796;51.458;7.000;2023-05-10T13:52:18;5.63;;;3.60;;
37973;SDS011;23796;51.458;7.000;2023-05-10T13:54:46;5.35;;;3.63;;
37973;SDS011;23796;51.458;7.000;2023-05-10T13:57:16;6.43;;;3.40;;
37973;SDS011;23796;51.458;7.000;2023-05-10T13:59:44;6.00;;;3.33;;
37973;SDS011;23796;51.458;7.000;2023-05-10T14:02:10;6.20;;;3.97;;
37973;SDS011;23796;51.458;7.000;2023-05-10T14:04:37;7.70;;;4.05;;
37973;SDS011;23796;51.458;7.000;2023-05-10T14:07:02;4.97;;;3.25;;
37973;SDS011;23796;51.458;7.000;2023-05-10T14:09:28;6.80;;;3.67;;
37973;SDS011;23796;51.458;7.000;2023-05-10T14:11:53;6.57;;;3.30;;
37973;SDS011;23796;51.458;7.000;2023-05-10T14:14:20;5.60;;;2.60;;
37973;SDS011;23796;51.458;7.000;2023-05-10T14:16:48;5.80;;;3.65;;
37973;SDS011;23796;51.458;7.000;2023-05-10T14:19:14;6.38;;;2.88;;
37973;SDS011;23796;51.458;7.000;2023-05-10T14:21:39;4.85;;;3.13;;
37973;SDS011;23796;51.458;7.000;2023-05-10T14:24:05;6.13;;;2.85;;
37973;SDS011;23796;51.458;7.000;2023-05-10T14:26:32;4.10;;;2.45;;
37973;SDS011;23796;51.458;7.000;2023-05-10T14:29:00;5.07;;;3.00;;
37973;SDS011;23796;51.458;7.000;2023-05-10T14:31:28;6.35;;;3.92;;
37973;SDS011;23796;51.458;7.000;2023-05-10T14:33:56;5.63;;;3.70;;
37973;SDS011;23796;51.458;7.000;2023-05-10T14:36:22;5.15;;;3.15;;
37973;SDS011;23796;51.458;7.000;2023-05-10T14:38:48;6.20;;;4.13;;
37973;SDS011;23796;51.458;7.000;2023-05-10T14:41:16;6.15;;;4.18;;
37973;SDS011;23796;51.458;7.000;2023-05-10T14:43:46;5.70;;;4.60;;
37973;SDS011;23796;51.458;7.000;2023-05-10T14:46:11;7.50;;;4.72;;
37973;SDS011;23796;51.458;7.000;2023-05-10T14:48:39;6.10;;;4.25;;
37973;SDS011;23796;51.458;7.000;2023-05-10T14:51:05;5.32;;;4.20;;
37973;SDS011;23796;51.458;7.000;2023-05-10T14:53:33;7.65;;;5.75;;
37973;SDS011;23796;51.458;7.000;2023-05-10T14:55:59;8.90;;;6.00;;
37973;SDS011;23796;51.458;7.000;2023-05-10T14:58:26;6.28;;;5.60;;
37973;SDS011;23796;51.458;7.000;2023-05-10T15:00:52;6.80;;;6.10;;
37973;SDS011;23796;51.458;7.000;2023-05-10T15:03:23;7.80;;;5.72;;
37973;SDS011;23796;51.458;7.000;2023-05-10T15:05:49;7.50;;;5.90;;
37973;SDS011;23796;51.458;7.000;2023-05-10T15:08:16;6.78;;;5.80;;
37973;SDS011;23796;51.458;7.000;2023-05-10T15:10:41;9.50;;;5.20;;
37973;SDS011;23796;51.458;7.000;2023-05-10T15:13:07;7.30;;;5.35;;
37973;SDS011;23796;51.458;7.000;2023-05-10T15:15:33;7.63;;;4.53;;
37973;SDS011;23796;51.458;7.000;2023-05-10T15:17:59;7.40;;;5.55;;
37973;SDS011;23796;51.458;7.000;2023-05-10T15:20:26;7.22;;;5.28;;